Time;durP1;ratioP1;P1;durP2;ratioP2;P2;SDS_P1;SDS_P2;PMS_P1;PMS_P2;Temp;Humidity;BMP_temperature;BMP_pressure;BME280_temperature;BME280_humidity;BME280_pressure;Samples;Min_cycle;Max_cycle;Signal;HPM_P1;HPM_P2
2022/05/09 00:01:41;;;;;;;11.15;6.75;;;8.70;99.90;;;;;;5055372;28;20056;-66
2022/05/09 00:04:08;;;;;;;13.05;6.82;;;8.70;99.90;;;;;;5053822;28;20122;-66
2022/05/09 00:06:35;;;;;;;12.52;8.13;;;8.70;99.90;;;;;;5054156;28;20037;-68
2022/05/09 00:09:03;;;;;;;11.75;7.40;;;8.70;99.90;;;;;;5054141;28;20045;-67
2022/05/09 00:11:32;;;;;;;15.93;7.43;;;8.60;99.90;;;;;;5054601;28;20519;-66
2022/05/09 00:13:59;;;;;;;18.08;7.72;;;8.60;99.90;;;;;;5053833;28;20473;-66
2022/05/09 00:16:33;;;;;;;14.38;7.45;;;8.60;99.90;;;;;;5053747;28;20080;-66
2022/05/09 00:19:05;;;;;;;16.80;7.32;;;8.50;99.90;;;;;;5055436;28;20045;-66
2022/05/09 00:21:36;;;;;;;12.13;6.95;;;8.60;99.90;;;;;;5054011;28;20041;-66
2022/05/09 00:24:04;;;;;;;17.45;8.85;;;8.60;99.90;;;;;;5054204;28;20037;-66
2022/05/09 00:26:33;;;;;;;13.48;7.57;;;8.50;99.90;;;;;;5053746;28;20063;-66
2022/05/09 00:29:02;;;;;;;20.23;7.93;;;8.50;99.90;;;;;;5054762;28;20045;-66
2022/05/09 00:31:29;;;;;;;11.98;7.43;;;8.50;99.90;;;;;;5055029;28;20037;-66
2022/05/09 00:33:56;;;;;;;15.10;8.35;;;8.40;99.90;;;;;;5053819;28;20073;-67
2022/05/09 00:36:23;;;;;;;14.93;8.13;;;8.40;99.90;;;;;;5055315;28;20106;-66
2022/05/09 00:38:50;;;;;;;10.63;6.90;;;8.40;99.90;;;;;;5053640;28;20041;-66
2022/05/09 00:41:31;;;;;;;13.43;7.65;;;8.40;99.90;;;;;;5037687;28;20052;-66
2022/05/09 00:43:59;;;;;;;11.88;8.07;;;8.40;99.90;;;;;;5055313;28;20400;-66
2022/05/09 00:46:28;;;;;;;11.73;7.10;;;8.30;99.90;;;;;;5054804;28;20045;-66
2022/05/09 00:49:03;;;;;;;10.98;7.18;;;8.30;99.90;;;;;;5054850;28;20040;-67
2022/05/09 00:51:30;;;;;;;13.23;8.23;;;8.30;99.90;;;;;;5055165;28;20045;-66
2022/05/09 00:53:57;;;;;;;13.25;7.63;;;8.30;99.90;;;;;;5053489;28;20048;-66
2022/05/09 00:56:35;;;;;;;14.02;9.25;;;8.20;99.90;;;;;;5054269;28;20131;-66
2022/05/09 00:59:07;;;;;;;15.68;10.55;;;8.20;99.90;;;;;;5037090;28;20040;-66
2022/05/09 01:01:35;;;;;;;15.10;8.02;;;8.20;99.90;;;;;;5053694;28;20052;-67
2022/05/09 01:04:19;;;;;;;18.52;8.32;;;8.20;99.90;;;;;;5052785;28;20037;-67
2022/05/09 01:06:46;;;;;;;12.55;8.02;;;8.10;99.90;;;;;;5053600;28;20040;-67
2022/05/09 01:09:13;;;;;;;25.13;10.07;;;8.10;99.90;;;;;;5053293;28;20048;-67
2022/05/09 01:11:42;;;;;;;13.32;8.52;;;8.10;99.90;;;;;;5053934;28;20041;-67
2022/05/09 01:14:36;;;;;;;18.38;8.80;;;8.10;99.90;;;;;;5053022;28;20144;-67
2022/05/09 01:17:03;;;;;;;12.13;9.15;;;8.10;99.90;;;;;;5052370;28;20403;-66
2022/05/09 01:19:36;;;;;;;14.00;9.48;;;8.00;99.90;;;;;;5052570;28;20465;-67
2022/05/09 01:22:15;;;;;;;14.32;8.88;;;8.00;99.90;;;;;;5053005;28;20055;-67
2022/05/09 01:24:42;;;;;;;13.77;8.63;;;8.00;99.90;;;;;;5054187;28;20049;-67
2022/05/09 01:27:09;;;;;;;18.42;9.48;;;8.00;99.90;;;;;;5052646;28;20051;-67
2022/05/09 01:29:42;;;;;;;14.57;8.48;;;7.90;99.90;;;;;;5052312;28;20045;-67
2022/05/09 01:32:10;;;;;;;14.63;8.75;;;7.90;99.90;;;;;;5052200;28;20048;-67
2022/05/09 01:34:38;;;;;;;12.40;7.57;;;7.90;99.90;;;;;;5052674;28;20148;-68
2022/05/09 01:37:07;;;;;;;16.20;9.38;;;7.90;99.90;;;;;;5052578;28;20051;-68
2022/05/09 01:39:36;;;;;;;14.57;7.77;;;7.90;99.90;;;;;;5053261;28;20051;-68
2022/05/09 01:42:06;;;;;;;14.00;8.32;;;7.80;99.90;;;;;;5053396;28;20056;-68
2022/05/09 01:44:33;;;;;;;14.10;7.93;;;7.80;99.90;;;;;;5035991;28;20045;-68
2022/05/09 01:49:45;;;;;;;13.43;7.90;;;7.70;99.90;;;;;;5053509;28;20048;-68
2022/05/09 01:52:14;;;;;;;14.73;8.10;;;7.60;99.90;;;;;;5052276;28;20041;-68
2022/05/09 01:54:43;;;;;;;11.95;8.13;;;7.50;99.90;;;;;;5053580;28;20468;-68
2022/05/09 01:57:11;;;;;;;17.07;8.97;;;7.50;99.90;;;;;;5053721;28;20055;-68
2022/05/09 01:59:41;;;;;;;12.05;7.28;;;7.50;99.90;;;;;;5052340;28;20045;-68
2022/05/09 02:02:13;;;;;;;11.30;7.45;;;7.40;99.90;;;;;;5051932;28;20037;-68
2022/05/09 02:04:40;;;;;;;11.88;7.72;;;7.40;99.90;;;;;;5052223;28;20041;-68
2022/05/09 02:07:09;;;;;;;12.60;8.02;;;7.30;99.90;;;;;;5052180;28;20045;-68
2022/05/09 02:09:41;;;;;;;17.45;8.68;;;7.30;99.90;;;;;;5051873;28;20051;-68
2022/05/09 02:12:08;;;;;;;13.48;8.15;;;7.30;99.90;;;;;;5052132;28;20053;-68
2022/05/09 02:14:35;;;;;;;13.85;7.75;;;7.20;99.90;;;;;;5052136;28;20056;-68
2022/05/09 02:17:02;;;;;;;11.77;7.75;;;7.20;99.90;;;;;;5051858;28;20472;-68
2022/05/09 02:19:29;;;;;;;13.30;7.80;;;7.10;99.90;;;;;;5053385;28;20045;-68
2022/05/09 02:21:56;;;;;;;12.88;7.45;;;7.10;99.90;;;;;;5053310;28;20041;-68
2022/05/09 02:24:23;;;;;;;17.00;8.20;;;7.10;99.90;;;;;;5052105;28;20040;-68
2022/05/09 02:26:50;;;;;;;12.68;8.25;;;7.10;99.90;;;;;;5052878;28;20056;-68
2022/05/09 02:29:17;;;;;;;13.00;7.03;;;7.10;99.90;;;;;;5053757;28;20041;-68
2022/05/09 02:31:44;;;;;;;11.15;8.00;;;7.10;99.90;;;;;;5054032;28;20059;-67
2022/05/09 02:34:11;;;;;;;15.13;8.82;;;7.00;99.90;;;;;;5052855;28;20049;-68
2022/05/09 02:36:38;;;;;;;12.38;7.50;;;7.00;99.90;;;;;;5053977;28;20048;-68
2022/05/09 02:39:05;;;;;;;12.55;7.03;;;7.00;99.90;;;;;;5052218;28;20079;-68
2022/05/09 02:41:32;;;;;;;17.05;8.52;;;6.90;99.90;;;;;;5052691;28;20041;-68
2022/05/09 02:43:59;;;;;;;14.52;7.90;;;6.90;99.90;;;;;;5054390;28;20488;-68
2022/05/09 02:46:26;;;;;;;10.70;7.85;;;6.90;99.90;;;;;;5055668;28;20041;-68
2022/05/09 02:48:53;;;;;;;12.95;8.88;;;6.90;99.90;;;;;;5055758;28;20404;-68
2022/05/09 02:51:20;;;;;;;14.48;8.75;;;6.90;99.90;;;;;;5038968;28;20049;-68
2022/05/09 02:53:48;;;;;;;11.73;7.82;;;6.90;99.90;;;;;;5055637;28;20045;-68
2022/05/09 02:56:15;;;;;;;12.20;7.78;;;6.90;99.90;;;;;;5056992;28;20048;-68
2022/05/09 02:58:42;;;;;;;14.38;7.47;;;6.90;99.90;;;;;;5055508;28;20048;-68
2022/05/09 03:01:09;;;;;;;15.02;8.10;;;6.80;99.90;;;;;;5056362;28;20098;-68
2022/05/09 03:06:21;;;;;;;14.10;8.43;;;6.80;99.90;;;;;;5055265;28;20055;-68
2022/05/09 03:08:48;;;;;;;13.15;8.18;;;6.80;99.90;;;;;;5056289;28;20476;-68
2022/05/09 03:11:15;;;;;;;12.52;8.68;;;6.70;99.90;;;;;;5054988;28;20085;-68
2022/05/09 03:13:42;;;;;;;16.00;8.27;;;6.70;99.90;;;;;;5055233;28;20055;-68
2022/05/09 03:16:09;;;;;;;13.55;8.40;;;6.70;99.90;;;;;;5056427;28;20416;-67
2022/05/09 03:18:37;;;;;;;16.23;8.32;;;6.70;99.90;;;;;;5056382;28;20048;-67
2022/05/09 03:21:04;;;;;;;18.00;7.85;;;6.70;99.90;;;;;;5057141;28;20051;-68
2022/05/09 03:23:31;;;;;;;15.30;8.70;;;6.60;99.90;;;;;;5056792;28;20052;-67
2022/05/09 03:25:58;;;;;;;16.08;9.00;;;6.50;99.90;;;;;;5055976;28;20049;-68
2022/05/09 03:28:25;;;;;;;18.33;7.57;;;6.60;99.90;;;;;;5055538;28;20041;-67
2022/05/09 03:30:53;;;;;;;12.88;8.98;;;6.50;99.90;;;;;;5055805;28;20071;-68
2022/05/09 03:33:22;;;;;;;18.38;9.50;;;6.50;99.90;;;;;;5056227;28;20520;-68
2022/05/09 03:35:50;;;;;;;16.65;9.40;;;6.50;99.90;;;;;;5056053;28;20045;-68
2022/05/09 03:38:17;;;;;;;13.10;8.38;;;6.50;99.90;;;;;;5055723;28;20045;-67
2022/05/09 03:40:44;;;;;;;16.92;8.85;;;6.50;99.90;;;;;;5054479;28;20056;-67
2022/05/09 03:43:11;;;;;;;13.48;8.82;;;6.50;99.90;;;;;;5056646;28;20048;-68
2022/05/09 03:45:42;;;;;;;16.05;8.15;;;6.40;99.90;;;;;;5054581;28;20048;-68
2022/05/09 03:48:09;;;;;;;14.30;8.10;;;6.40;99.90;;;;;;5054533;28;20041;-67
2022/05/09 03:50:36;;;;;;;14.32;8.05;;;6.30;99.90;;;;;;5054576;28;20392;-67
2022/05/09 03:53:03;;;;;;;17.73;8.35;;;6.30;99.90;;;;;;5056223;28;20124;-67
2022/05/09 03:55:33;;;;;;;16.60;9.10;;;6.30;99.90;;;;;;5053683;28;20047;-68
2022/05/09 03:58:00;;;;;;;13.85;10.77;;;6.30;99.90;;;;;;5054410;28;20077;-67
2022/05/09 04:00:29;;;;;;;17.80;10.32;;;6.30;99.90;;;;;;5054312;28;20118;-67
2022/05/09 04:02:56;;;;;;;14.68;8.48;;;6.30;99.90;;;;;;5055524;28;20048;-67
2022/05/09 04:05:23;;;;;;;14.43;9.32;;;6.30;99.90;;;;;;5053909;28;20123;-67
2022/05/09 04:07:51;;;;;;;15.38;9.05;;;6.30;99.90;;;;;;5055209;28;20037;-67
2022/05/09 04:10:20;;;;;;;11.75;8.27;;;6.20;99.90;;;;;;5037477;28;20041;-67
2022/05/09 04:12:47;;;;;;;14.90;8.52;;;6.10;99.90;;;;;;5053887;28;20049;-67
2022/05/09 04:17:59;;;;;;;13.27;7.93;;;6.10;99.90;;;;;;5055050;28;20041;-67
2022/05/09 04:20:29;;;;;;;11.52;8.13;;;6.00;99.90;;;;;;5054867;28;20409;-67
2022/05/09 04:22:59;;;;;;;15.43;8.73;;;6.00;99.90;;;;;;5055717;28;20076;-67
2022/05/09 04:25:29;;;;;;;12.20;8.10;;;6.00;99.90;;;;;;5054757;28;20133;-67
2022/05/09 04:27:57;;;;;;;10.63;7.50;;;6.00;99.90;;;;;;5053900;28;20041;-67
2022/05/09 04:30:25;;;;;;;12.50;8.17;;;6.00;99.90;;;;;;5055807;28;20095;-67
2022/05/09 04:32:52;;;;;;;11.48;7.43;;;6.00;99.90;;;;;;5054289;28;20056;-68
2022/05/09 04:35:20;;;;;;;14.07;8.02;;;6.00;99.90;;;;;;5054563;28;20046;-68
2022/05/09 04:37:52;;;;;;;15.27;7.72;;;6.10;99.90;;;;;;5054209;28;20080;-67
2022/05/09 04:40:28;;;;;;;11.63;7.32;;;6.10;99.90;;;;;;5053641;28;20469;-67
2022/05/09 04:42:56;;;;;;;12.27;7.50;;;6.10;99.90;;;;;;5053952;28;20447;-67
2022/05/09 04:45:23;;;;;;;13.35;8.32;;;6.10;99.90;;;;;;5055435;28;20041;-67
2022/05/09 04:47:51;;;;;;;17.13;8.98;;;6.20;99.90;;;;;;5053515;28;20064;-67
2022/05/09 04:50:21;;;;;;;12.52;7.97;;;6.20;99.90;;;;;;5053248;28;20075;-67
2022/05/09 04:52:48;;;;;;;14.32;9.05;;;6.20;99.90;;;;;;5053282;28;20131;-67
2022/05/09 04:55:15;;;;;;;15.25;8.43;;;6.30;99.90;;;;;;5053321;28;20045;-67
2022/05/09 04:57:43;;;;;;;12.18;8.00;;;6.30;99.90;;;;;;5053192;28;20057;-67
2022/05/09 05:00:14;;;;;;;16.08;8.95;;;6.50;99.90;;;;;;5053211;28;20045;-67
2022/05/09 05:02:40;;;;;;;14.65;9.20;;;6.80;99.90;;;;;;5053524;28;20068;-67
2022/05/09 05:05:08;;;;;;;10.90;8.50;;;7.40;99.90;;;;;;5053951;28;20037;-68
2022/05/09 05:07:35;;;;;;;11.73;9.10;;;7.90;99.90;;;;;;5053457;28;20037;-68
2022/05/09 05:10:03;;;;;;;12.00;8.77;;;8.40;99.90;;;;;;5054224;28;20041;-67
2022/05/09 05:12:31;;;;;;;10.27;7.90;;;8.90;99.90;;;;;;5053431;28;20411;-67
2022/05/09 05:15:00;;;;;;;12.10;7.78;;;9.30;99.90;;;;;;5053818;28;20052;-68
2022/05/09 05:17:27;;;;;;;12.50;7.27;;;9.70;99.90;;;;;;5054350;28;20049;-67
2022/05/09 05:19:54;;;;;;;7.20;6.35;;;9.90;99.90;;;;;;5052584;28;20048;-68
2022/05/09 05:22:21;;;;;;;9.25;6.78;;;10.30;99.90;;;;;;5053554;28;20361;-67
2022/05/09 05:24:52;;;;;;;7.70;6.70;;;10.50;99.90;;;;;;5052727;28;20045;-68
2022/05/09 05:27:21;;;;;;;8.57;7.10;;;10.80;99.90;;;;;;5054424;28;20055;-67
2022/05/09 05:29:49;;;;;;;7.75;5.97;;;11.10;99.90;;;;;;5054379;28;20099;-67
2022/05/09 05:32:21;;;;;;;9.95;6.55;;;11.30;99.90;;;;;;5054001;28;20080;-63
2022/05/09 05:34:48;;;;;;;20.95;17.73;;;11.50;99.90;;;;;;5054548;28;20049;-70
2022/05/09 05:37:19;;;;;;;9.10;7.15;;;11.50;99.90;;;;;;5052605;28;20061;-66
2022/05/09 05:39:46;;;;;;;100.30;83.38;;;11.70;99.90;;;;;;5052628;28;20484;-71
2022/05/09 05:42:18;;;;;;;18.55;16.10;;;11.90;99.90;;;;;;5053426;28;20047;-69
2022/05/09 05:44:46;;;;;;;13.90;8.85;;;12.10;99.90;;;;;;5052231;28;20395;-66
2022/05/09 05:47:14;;;;;;;12.82;7.35;;;12.20;99.90;;;;;;5052390;28;20053;-69
2022/05/09 05:49:41;;;;;;;9.05;6.47;;;12.10;99.90;;;;;;5053636;28;20137;-66
2022/05/09 05:52:08;;;;;;;11.38;6.18;;;11.90;99.90;;;;;;5053596;28;20048;-64
2022/05/09 05:54:39;;;;;;;10.98;6.75;;;11.80;99.90;;;;;;5052870;28;20040;-73
2022/05/09 05:57:07;;;;;;;11.40;6.38;;;11.60;99.90;;;;;;5052565;28;20056;-68
2022/05/09 05:59:34;;;;;;;9.00;4.65;;;11.50;99.90;;;;;;5053584;28;20392;-73
2022/05/09 06:02:01;;;;;;;8.55;4.20;;;11.40;99.90;;;;;;5053445;28;20041;-68
2022/05/09 06:04:28;;;;;;;9.88;4.50;;;11.30;99.90;;;;;;5051922;28;20132;-68
2022/05/09 06:06:55;;;;;;;23.80;15.07;;;11.30;99.90;;;;;;5052386;28;20049;-67
2022/05/09 06:09:22;;;;;;;64.65;52.92;;;11.40;99.90;;;;;;5053081;28;20041;-65
2022/05/09 06:11:48;;;;;;;89.00;79.25;;;11.60;99.90;;;;;;5051789;28;20044;-60
2022/05/09 06:14:15;;;;;;;17.17;9.07;;;11.80;99.90;;;;;;5053051;28;20041;-60
2022/05/09 06:16:43;;;;;;;11.90;6.03;;;11.90;99.90;;;;;;5053293;28;20465;-62
2022/05/09 06:19:11;;;;;;;11.23;6.20;;;12.00;99.90;;;;;;5055102;28;20052;-65
2022/05/09 06:21:37;;;;;;;39.08;7.28;;;12.10;99.90;;;;;;5056160;28;20129;-65
2022/05/09 06:24:06;;;;;;;11.50;5.80;;;12.20;99.90;;;;;;5055836;28;20495;-65
2022/05/09 06:26:34;;;;;;;20.10;6.28;;;12.20;99.90;;;;;;5039522;28;20045;-64
2022/05/09 06:29:06;;;;;;;14.45;5.47;;;12.20;99.90;;;;;;5039632;28;20538;-65
2022/05/09 06:31:34;;;;;;;12.18;5.20;;;12.30;99.90;;;;;;5056036;28;20048;-70
2022/05/09 06:34:02;;;;;;;12.27;6.20;;;12.30;99.90;;;;;;5055638;28;20056;-71
2022/05/09 06:36:33;;;;;;;10.45;5.90;;;12.40;99.90;;;;;;5055554;28;20725;-70
2022/05/09 06:39:01;;;;;;;21.65;7.85;;;12.40;99.90;;;;;;5055885;28;20389;-71
2022/05/09 06:41:28;;;;;;;9.63;5.45;;;12.50;99.90;;;;;;5039557;28;20049;-71
2022/05/09 06:43:54;;;;;;;13.07;6.45;;;12.60;99.90;;;;;;5056630;28;20045;-70
2022/05/09 06:46:21;;;;;;;14.38;5.55;;;12.60;99.90;;;;;;5055343;28;20041;-70
2022/05/09 06:48:48;;;;;;;11.52;5.13;;;12.70;99.90;;;;;;5055973;28;20041;-71
2022/05/09 06:51:16;;;;;;;9.27;5.40;;;12.80;99.90;;;;;;5055190;28;20048;-71
2022/05/09 06:53:44;;;;;;;11.52;5.95;;;12.80;99.90;;;;;;5056464;28;20048;-70
2022/05/09 06:56:11;;;;;;;14.43;5.65;;;12.90;99.90;;;;;;5055778;28;20049;-70
2022/05/09 06:58:38;;;;;;;7.05;4.28;;;13.00;99.90;;;;;;5039887;28;20051;-70
2022/05/09 07:01:15;;;;;;;9.48;4.22;;;13.10;99.90;;;;;;5055395;28;20048;-70
2022/05/09 07:03:43;;;;;;;7.75;4.10;;;13.20;99.90;;;;;;5039015;28;20096;-70
2022/05/09 07:06:10;;;;;;;12.63;5.30;;;13.20;99.90;;;;;;5038843;28;20053;-70
2022/05/09 07:08:37;;;;;;;10.65;5.07;;;13.30;99.90;;;;;;5055026;28;20132;-71
2022/05/09 07:11:05;;;;;;;9.57;4.75;;;13.30;99.90;;;;;;5038760;28;20103;-71
2022/05/09 07:13:48;;;;;;;11.93;4.75;;;13.40;99.90;;;;;;5055756;28;20102;-70
2022/05/09 07:16:17;;;;;;;12.38;5.10;;;13.50;99.90;;;;;;5055709;28;20128;-70
2022/05/09 07:18:44;;;;;;;8.07;4.45;;;13.60;99.90;;;;;;5055076;28;20094;-70
2022/05/09 07:21:11;;;;;;;9.98;5.28;;;13.70;99.90;;;;;;5057008;28;20043;-70
2022/05/09 07:23:38;;;;;;;10.82;4.28;;;13.80;99.90;;;;;;5055791;28;20049;-71
2022/05/09 07:26:06;;;;;;;8.25;4.78;;;14.00;99.90;;;;;;5055104;28;20041;-69
2022/05/09 07:28:33;;;;;;;10.98;4.65;;;14.20;99.90;;;;;;5054888;28;20040;-70
2022/05/09 07:31:00;;;;;;;9.98;4.20;;;14.20;99.90;;;;;;5054423;28;20047;-69
2022/05/09 07:33:28;;;;;;;9.35;5.80;;;14.30;99.90;;;;;;5054594;28;20140;-75
2022/05/09 07:35:55;;;;;;;12.52;5.43;;;14.40;99.90;;;;;;5054774;28;20468;-71
2022/05/09 07:38:22;;;;;;;7.35;3.33;;;14.60;99.90;;;;;;5054692;28;20048;-71
2022/05/09 07:40:49;;;;;;;7.88;3.58;;;14.70;99.90;;;;;;5055854;28;20063;-73
2022/05/09 07:43:18;;;;;;;15.43;7.63;;;14.80;99.90;;;;;;5055876;28;20041;-71
2022/05/09 07:45:45;;;;;;;57.97;44.88;;;15.00;99.90;;;;;;5054618;28;20045;-71
2022/05/09 07:48:12;;;;;;;14.05;5.00;;;15.10;99.90;;;;;;5054598;28;20461;-71
2022/05/09 07:50:40;;;;;;;7.95;3.53;;;15.30;99.90;;;;;;5037832;28;20124;-72
2022/05/09 07:53:12;;;;;;;8.15;2.90;;;15.40;97.30;;;;;;5055365;28;20047;-71
2022/05/09 07:55:40;;;;;;;7.35;2.63;;;15.50;96.30;;;;;;5054959;28;20041;-71
2022/05/09 07:58:07;;;;;;;8.85;2.80;;;15.70;95.30;;;;;;5054300;28;20053;-72
2022/05/09 08:00:35;;;;;;;7.25;3.15;;;15.80;95.30;;;;;;5055257;28;20045;-76
2022/05/09 08:03:03;;;;;;;4.13;1.55;;;16.00;93.20;;;;;;5056241;28;20132;-71
2022/05/09 08:05:30;;;;;;;6.55;2.47;;;16.20;94.60;;;;;;5054312;28;20088;-73
2022/05/09 08:07:57;;;;;;;10.48;2.17;;;16.40;92.00;;;;;;5055850;28;20051;-73
2022/05/09 08:10:24;;;;;;;6.70;2.72;;;16.50;92.40;;;;;;5055403;28;20122;-71
2022/05/09 08:12:52;;;;;;;6.35;2.88;;;16.60;91.60;;;;;;5053777;28;20076;-74
2022/05/09 08:15:19;;;;;;;88.50;66.13;;;16.70;92.90;;;;;;5054579;28;20044;-69
2022/05/09 08:17:49;;;;;;;16.50;10.32;;;16.90;92.40;;;;;;5055984;28;20124;-72
2022/05/09 08:20:16;;;;;;;11.25;5.68;;;17.10;92.50;;;;;;5053702;28;20048;-75
2022/05/09 08:22:45;;;;;;;6.18;3.17;;;17.30;91.00;;;;;;5055705;28;20044;-78
2022/05/09 08:25:13;;;;;;;8.75;2.75;;;17.40;87.90;;;;;;5053575;28;20041;-70
2022/05/09 08:27:41;;;;;;;;;;;17.40;91.40;;;;;;5054249;28;20048;-68
2022/05/09 08:30:08;;;;;;;7.50;3.80;;;17.60;90.10;;;;;;5055793;28;19916;-69
2022/05/09 08:32:42;;;;;;;7.43;3.28;;;17.70;90.30;;;;;;5055325;28;20081;-75
2022/05/09 08:35:09;;;;;;;9.27;3.05;;;17.80;90.40;;;;;;5053560;28;20060;-69
2022/05/09 08:37:36;;;;;;;5.25;2.83;;;17.90;89.90;;;;;;5054803;28;20052;-69
2022/05/09 08:40:04;;;;;;;8.35;4.20;;;18.20;87.60;;;;;;5055271;28;20041;-69
2022/05/09 08:42:33;;;;;;;8.88;3.30;;;18.50;88.50;;;;;;5054944;28;20060;-69
2022/05/09 08:45:04;;;;;;;8.25;3.05;;;18.60;87.10;;;;;;5053222;28;20049;-69
2022/05/09 08:47:56;;;;;;;8.38;3.38;;;18.70;86.60;;;;;;5053805;28;20063;-69
2022/05/09 08:50:50;;;;;;;6.13;3.45;;;18.80;85.70;;;;;;5055172;28;20048;-69
2022/05/09 08:53:24;;;;;;;8.57;3.20;;;18.90;83.60;;;;;;5054602;28;20052;-69
2022/05/09 08:55:52;;;;;;;8.68;3.40;;;18.90;83.50;;;;;;5053921;28;20132;-69
2022/05/09 08:58:45;;;;;;;7.68;3.38;;;19.00;85.60;;;;;;5052894;28;20045;-69
2022/05/09 09:01:26;;;;;;;9.23;3.50;;;19.00;82.70;;;;;;5053780;28;20037;-69
2022/05/09 09:04:04;;;;;;;7.53;3.05;;;19.10;86.20;;;;;;5037229;28;20076;-69
2022/05/09 09:07:14;;;;;;;7.65;3.15;;;19.10;82.80;;;;;;5055039;28;20416;-69
2022/05/09 09:10:06;;;;;;;8.77;3.47;;;19.20;84.20;;;;;;5054289;28;20052;-69
2022/05/09 09:12:37;;;;;;;5.63;3.45;;;19.30;84.30;;;;;;5054671;28;20056;-69
2022/05/09 09:15:16;;;;;;;7.78;3.63;;;19.40;84.20;;;;;;5053434;28;20055;-69
2022/05/09 09:17:57;;;;;;;;;;;19.40;84.30;;;;;;5054168;28;20469;-69
2022/05/09 09:20:31;;;;;;;11.52;3.88;;;19.40;83.30;;;;;;5052802;28;19920;-69
2022/05/09 09:23:35;;;;;;;8.05;4.15;;;19.50;87.20;;;;;;5053366;28;20048;-69
2022/05/09 09:26:04;;;;;;;11.23;3.75;;;19.60;85.20;;;;;;5054155;28;20102;-69
2022/05/09 09:28:46;;;;;;;8.40;3.45;;;19.60;87.70;;;;;;5052518;28;20411;-69
2022/05/09 09:31:22;;;;;;;7.32;3.65;;;19.70;88.90;;;;;;5053279;28;20457;-70
2022/05/09 09:33:57;;;;;;;11.55;4.60;;;19.80;88.50;;;;;;5053167;28;20124;-69
2022/05/09 09:36:30;;;;;;;7.50;4.22;;;19.90;85.80;;;;;;5037139;28;20049;-69
2022/05/09 09:39:19;;;;;;;7.60;3.35;;;19.90;87.20;;;;;;5053102;28;20133;-69
2022/05/09 09:41:46;;;;;;;8.82;3.72;;;20.00;87.00;;;;;;5052185;28;20124;-69
2022/05/09 09:44:21;;;;;;;11.25;3.92;;;20.10;87.70;;;;;;5035808;28;20048;-69
2022/05/09 09:47:01;;;;;;;6.88;4.00;;;20.30;86.20;;;;;;5053083;28;20044;-69
2022/05/09 09:49:28;;;;;;;9.32;4.35;;;20.40;87.60;;;;;;5052081;28;20124;-70
2022/05/09 09:51:57;;;;;;;6.70;3.70;;;20.30;85.60;;;;;;5051971;28;20047;-70
2022/05/09 09:54:31;;;;;;;8.80;4.97;;;20.30;87.70;;;;;;5051956;28;20476;-69
2022/05/09 09:57:29;;;;;;;8.70;4.70;;;20.30;87.70;;;;;;5052018;28;20467;-69
2022/05/09 09:59:58;;;;;;;8.60;4.68;;;20.30;89.10;;;;;;5052093;28;20041;-69
2022/05/09 10:02:26;;;;;;;8.07;4.33;;;20.30;90.20;;;;;;5052895;28;20041;-69
2022/05/09 10:04:57;;;;;;;7.22;5.05;;;20.40;89.70;;;;;;5052210;28;20076;-69
2022/05/09 10:07:32;;;;;;;6.95;4.45;;;20.40;90.20;;;;;;5035315;28;20041;-69
2022/05/09 10:10:20;;;;;;;8.73;4.22;;;20.40;91.00;;;;;;5051815;28;20055;-69
2022/05/09 10:12:51;;;;;;;6.43;4.68;;;20.60;90.30;;;;;;5036813;28;20073;-69
2022/05/09 10:15:39;;;;;;;8.00;4.75;;;20.70;88.90;;;;;;5053772;28;20045;-69
2022/05/09 10:18:18;;;;;;;11.02;5.22;;;20.70;89.90;;;;;;5052240;28;20056;-69
2022/05/09 10:27:06;;;;;;;10.32;4.82;;;21.00;89.40;;;;;;5053935;28;20091;-68
2022/05/09 10:29:37;;;;;;;11.77;5.13;;;21.20;88.60;;;;;;5051986;28;20044;-68
2022/05/09 10:32:06;;;;;;;10.70;5.45;;;21.20;88.40;;;;;;5035307;28;20071;-68
2022/05/09 10:34:49;;;;;;;8.38;5.30;;;21.10;86.90;;;;;;5052474;28;20063;-69
2022/05/09 10:37:40;;;;;;;8.35;5.10;;;21.30;88.10;;;;;;5051625;28;20056;-69
2022/05/09 10:40:11;;;;;;;9.80;4.72;;;21.30;84.10;;;;;;5052480;28;20041;-69
2022/05/09 10:42:51;;;;;;;10.05;4.88;;;21.40;86.50;;;;;;5051836;28;20041;-69
2022/05/09 10:45:21;;;;;;;7.70;4.75;;;21.50;83.90;;;;;;5052316;28;20132;-69
2022/05/09 10:48:00;;;;;;;10.15;5.55;;;21.50;85.80;;;;;;5052605;28;20473;-69
2022/05/09 10:50:52;;;;;;;9.82;4.53;;;21.60;87.00;;;;;;5053266;28;20048;-69
2022/05/09 10:53:31;;;;;;;10.15;4.70;;;21.70;86.10;;;;;;5035361;28;20044;-69
2022/05/09 10:56:03;;;;;;;46.33;40.42;;;21.80;83.90;;;;;;5051583;28;20045;-70
2022/05/09 10:58:34;;;;;;;40.83;34.33;;;22.00;84.30;;;;;;5054101;28;20049;-64
2022/05/09 11:01:32;;;;;;;13.25;7.93;;;22.10;83.80;;;;;;5052523;28;20095;-65
2022/05/09 11:04:00;;;;;;;8.77;5.68;;;22.20;82.30;;;;;;5052182;28;20049;-70
2022/05/09 11:06:30;;;;;;;14.82;9.15;;;22.30;83.20;;;;;;5056282;28;20052;-69
2022/05/09 11:09:34;;;;;;;7.95;5.18;;;22.30;81.80;;;;;;5054908;28;20073;-68
2022/05/09 11:12:13;;;;;;;10.48;6.20;;;22.20;80.20;;;;;;5056772;28;20045;-51
2022/05/09 11:14:47;;;;;;;9.15;4.43;;;22.10;80.40;;;;;;5056234;28;20049;-59
2022/05/09 11:17:17;;;;;;;8.63;5.78;;;22.10;79.30;;;;;;5055083;28;20159;-61
2022/05/09 11:20:04;;;;;;;7.10;4.90;;;22.10;79.90;;;;;;5056099;28;20499;-61
2022/05/09 11:22:59;;;;;;;7.22;4.53;;;22.10;79.50;;;;;;5055807;28;20041;-63
2022/05/09 11:25:56;;;;;;;7.43;4.93;;;22.10;79.90;;;;;;5054872;28;20048;-62
2022/05/09 11:28:36;;;;;;;10.68;4.05;;;22.20;79.80;;;;;;5055927;28;20037;-66
2022/05/09 11:31:18;;;;;;;8.65;5.28;;;22.30;79.90;;;;;;5056749;28;20065;-71
2022/05/09 11:34:04;;;;;;;9.70;5.13;;;22.40;81.20;;;;;;5055793;28;20552;-67
2022/05/09 11:36:38;;;;;;;9.25;5.47;;;22.40;79.10;;;;;;5056090;28;20041;-71
2022/05/09 11:39:23;;;;;;;8.27;5.30;;;22.60;81.60;;;;;;5055347;28;20098;-74
2022/05/09 11:45:47;;;;;;;7.55;5.35;;;22.70;76.30;;;;;;5055454;28;20045;-71
2022/05/09 11:48:42;;;;;;;9.90;5.30;;;22.90;77.30;;;;;;5055388;28;20094;-70
2022/05/09 11:51:17;;;;;;;7.80;5.13;;;22.80;77.10;;;;;;5056567;28;20079;-70
2022/05/09 11:53:46;;;;;;;7.90;5.07;;;22.80;79.00;;;;;;5056309;28;20045;-71
2022/05/09 11:56:13;;;;;;;6.82;5.15;;;23.00;78.30;;;;;;5054200;28;20490;-71
2022/05/09 11:58:43;;;;;;;10.73;5.20;;;23.00;77.70;;;;;;5055413;28;20470;-69
2022/05/09 12:01:10;;;;;;;9.35;6.38;;;23.00;76.80;;;;;;5054291;28;20044;-73
2022/05/09 12:03:40;;;;;;;8.48;6.97;;;22.90;76.40;;;;;;5055494;28;20362;-73
2022/05/09 12:06:11;;;;;;;9.55;7.45;;;22.90;77.60;;;;;;5055871;28;20048;-74
2022/05/09 12:08:43;;;;;;;7.90;5.68;;;22.90;77.90;;;;;;5053930;28;20488;-73
2022/05/09 12:11:25;;;;;;;10.38;6.25;;;22.80;75.80;;;;;;5055002;28;20048;-74
2022/05/09 12:13:54;;;;;;;6.93;5.45;;;22.60;76.20;;;;;;5055118;28;20049;-75
2022/05/09 12:16:36;;;;;;;9.05;6.30;;;22.60;76.60;;;;;;5052742;28;20044;-77
2022/05/09 12:19:05;;;;;;;9.38;4.90;;;22.80;76.90;;;;;;5055143;28;20128;-77
2022/05/09 12:21:37;;;;;;;6.97;5.05;;;22.80;76.40;;;;;;5054301;28;20044;-77
2022/05/09 12:24:19;;;;;;;7.70;5.40;;;22.90;77.20;;;;;;5054057;28;20041;-77
2022/05/09 12:26:51;;;;;;;7.93;5.53;;;23.00;77.00;;;;;;5054820;28;20071;-76
2022/05/09 12:29:18;;;;;;;7.50;4.65;;;23.10;77.00;;;;;;5054363;28;20041;-77
2022/05/09 12:31:53;;;;;;;10.50;5.10;;;23.30;77.10;;;;;;5054510;28;20504;-78
2022/05/09 12:34:27;;;;;;;8.55;5.60;;;23.30;74.10;;;;;;5053629;28;20047;-79
2022/05/09 12:36:54;;;;;;;7.03;5.43;;;23.20;75.20;;;;;;5054241;28;20059;-77
2022/05/09 12:39:32;;;;;;;10.13;5.47;;;23.00;75.40;;;;;;5054573;28;20127;-79
2022/05/09 12:42:00;;;;;;;8.07;5.32;;;23.00;76.80;;;;;;5053328;28;20056;-77
2022/05/09 12:44:28;;;;;;;8.82;5.28;;;23.20;76.60;;;;;;5053459;28;20431;-78
2022/05/09 12:47:07;;;;;;;14.27;5.90;;;23.40;74.90;;;;;;5053061;28;20044;-78
2022/05/09 12:49:42;;;;;;;8.80;6.13;;;23.50;73.70;;;;;;5054303;28;20044;-78
2022/05/09 12:52:10;;;;;;;6.00;5.40;;;23.60;74.10;;;;;;5055257;28;20053;-76
2022/05/09 12:54:39;;;;;;;7.97;5.95;;;23.40;72.30;;;;;;5053104;28;20041;-74
2022/05/09 12:57:07;;;;;;;9.90;5.70;;;23.20;73.20;;;;;;5052796;28;20049;-73
2022/05/09 12:59:52;;;;;;;8.68;5.93;;;23.00;73.50;;;;;;5054308;28;20049;-74
2022/05/09 13:02:20;;;;;;;8.75;5.40;;;22.90;72.70;;;;;;5053102;28;20055;-74
2022/05/09 13:05:07;;;;;;;;;;;22.90;73.70;;;;;;5039601;28;20044;-72
2022/05/09 13:07:55;;;;;;;11.75;5.75;;;23.00;72.10;;;;;;5054040;28;19916;-73
2022/05/09 13:10:23;;;;;;;9.17;4.90;;;23.10;73.70;;;;;;5053247;28;20040;-73
2022/05/09 13:12:50;;;;;;;8.43;5.75;;;23.20;73.10;;;;;;5053583;28;20052;-72
2022/05/09 13:15:18;;;;;;;8.00;4.57;;;23.20;72.00;;;;;;5052200;28;20048;-71
2022/05/09 13:17:47;;;;;;;8.20;5.55;;;23.30;73.00;;;;;;5052932;28;20056;-70
2022/05/09 13:20:19;;;;;;;9.23;5.28;;;23.20;72.40;;;;;;5052546;28;20151;-68
2022/05/09 13:22:46;;;;;;;7.28;5.55;;;23.10;71.60;;;;;;5052770;28;20041;-68
2022/05/09 13:25:34;;;;;;;8.57;5.00;;;23.00;72.60;;;;;;5052350;28;20036;-69